Fuding, China
Current Conditions -  °F | °C
As of 10:00 AM on Monday 22 Dec 2014 (Local Time) from ZSFZ Reporting Station
Clear Clear  
Wind Chill: 52°   Ceiling: Unl
Heat Index: 52°   Visibility: 6mi
Dew Point: 28°   Wind: 22mph
Humidity: 41%   Direction: 50°NE
Pressure: 30.42"   Gusts: NA
Location:  27.33°N, 120.2°E
Report Text: ZSFZ 220200Z 05010MPS CAVOK 11/M02 Q1030 NOSIG
Loading
Personal Weather Stations






























Interactive Weather Map New forecast layout! Learn more

10-Day Weather Forecast

Advertisements
Track Severe Weather on mobile